Time;durP1;ratioP1;P1;durP2;ratioP2;P2;SDS_P1;SDS_P2;PMS_P1;PMS_P2;Temp;Humidity;BMP_temperature;BMP_pressure;BME280_temperature;BME280_humidity;BME280_pressure;Samples;Min_cycle;Max_cycle;Signal;HPM_P1;HPM_P2
2021/12/15 00:00:18;;;;;;;73.20;34.67;;;;;;;9.03;85.97;102917.59;5029109;28;20112;-67
2021/12/15 00:02:45;;;;;;;58.15;32.83;;;;;;;8.99;86.27;102913.19;5038931;28;20029;-67
2021/12/15 00:05:13;;;;;;;64.63;32.55;;;;;;;9.02;85.83;102913.19;5028080;28;20014;-67
2021/12/15 00:07:39;;;;;;;65.93;33.65;;;;;;;8.98;86.33;102911.44;5027557;28;20033;-67
2021/12/15 00:10:05;;;;;;;64.53;34.78;;;;;;;8.96;86.18;102913.16;5044555;28;20152;-66
2021/12/15 00:12:30;;;;;;;60.28;32.72;;;;;;;9.00;85.92;102912.31;5040179;28;20424;-68
2021/12/15 00:14:56;;;;;;;60.20;31.52;;;;;;;8.97;85.76;102913.16;5028617;28;20424;-68
2021/12/15 00:17:23;;;;;;;59.25;33.78;;;;;;;8.96;85.71;102911.41;5028064;28;20237;-68
2021/12/15 00:19:49;;;;;;;62.38;33.83;;;;;;;8.94;85.81;102913.16;5027086;28;20026;-66
2021/12/15 00:22:14;;;;;;;64.07;36.40;;;;;;;8.90;86.08;102905.22;5031689;28;20714;-67
2021/12/15 00:24:40;;;;;;;53.45;31.73;;;;;;;8.95;86.14;102906.16;5035080;28;20029;-66
2021/12/15 00:27:06;;;;;;;61.40;32.53;;;;;;;8.92;86.11;102906.13;5027012;28;20479;-66
2021/12/15 00:29:31;;;;;;;55.92;32.38;;;;;;;8.90;85.72;102906.13;5034619;28;20031;-65
2021/12/15 00:31:58;;;;;;;67.68;36.80;;;;;;;8.86;86.11;102904.34;5047736;28;20083;-67
2021/12/15 00:34:23;;;;;;;62.38;32.75;;;;;;;8.95;85.63;102907.03;5046273;28;20074;-68
2021/12/15 00:36:49;;;;;;;57.25;31.73;;;;;;;8.94;85.88;102907.03;5047948;28;20502;-65
2021/12/15 00:39:18;;;;;;;60.00;32.47;;;;;;;8.96;85.48;102902.66;5041654;28;20026;-69
2021/12/15 00:41:43;;;;;;;64.68;35.22;;;;;;;8.95;85.56;102898.25;5033685;28;20128;-67
2021/12/15 00:44:09;;;;;;;58.05;31.80;;;;;;;8.95;85.81;102898.25;5041454;28;20528;-70
2021/12/15 00:46:35;;;;;;;57.92;32.67;;;;;;;8.94;85.73;102905.25;5047947;28;20514;-66
2021/12/15 00:49:01;;;;;;;53.53;31.85;;;;;;;8.96;85.44;102903.53;5046758;28;20144;-67
2021/12/15 00:51:27;;;;;;;53.97;31.05;;;;;;;9.00;85.42;102906.19;5032814;28;20407;-67
2021/12/15 00:53:53;;;;;;;57.03;31.08;;;;;;;9.01;85.21;102907.94;5030704;28;20026;-66
2021/12/15 00:56:18;;;;;;;53.72;31.05;;;;;;;8.95;85.26;102906.16;5028151;28;20018;-66
2021/12/15 00:58:43;;;;;;;56.65;32.13;;;;;;;8.98;85.04;102907.03;5027788;28;20059;-68
2021/12/15 01:01:09;;;;;;;55.70;33.55;;;;;;;9.00;85.37;102909.66;5028080;28;20392;-65
2021/12/15 01:03:34;;;;;;;54.13;32.42;;;;;;;8.97;85.18;102904.38;5027260;28;20025;-67
2021/12/15 01:06:09;;;;;;;60.63;32.75;;;;;;;8.95;85.24;102900.91;5026622;28;20376;-67
2021/12/15 01:08:43;;;;;;;59.60;33.85;;;;;;;8.92;85.18;102908.75;5047525;28;20141;-68
2021/12/15 01:19:54;;;;;;;57.38;32.08;;;;;;;8.90;85.43;102908.75;4993458;28;20457;-68
2021/12/15 01:22:32;;;;;;;62.45;34.15;;;;;;;8.83;85.56;102905.22;5025425;28;20025;-66
2021/12/15 01:25:06;;;;;;;64.70;33.15;;;;;;;8.85;85.82;102905.19;5026696;28;20029;-68
2021/12/15 01:27:31;;;;;;;64.10;32.75;;;;;;;8.82;85.82;102902.56;5031965;28;20013;-66
2021/12/15 01:29:57;;;;;;;55.85;31.63;;;;;;;8.85;85.83;102910.44;5047247;28;20056;-68
2021/12/15 01:32:22;;;;;;;68.70;33.50;;;;;;;8.88;85.70;102906.97;5039139;28;20036;-65
2021/12/15 01:34:48;;;;;;;71.75;35.92;;;;;;;8.82;85.78;102915.72;5057866;28;20041;-67
2021/12/15 01:37:14;;;;;;;53.83;29.98;;;;;;;8.85;85.49;102907.81;5024715;28;20530;-67
2021/12/15 01:39:40;;;;;;;60.85;32.17;;;;;;;8.84;85.86;102912.22;5047305;28;20029;-67
2021/12/15 01:42:06;;;;;;;60.63;33.95;;;;;;;8.78;85.99;102917.44;5044917;28;20120;-67
2021/12/15 01:47:01;;;;;;;61.35;32.38;;;;;;;8.88;85.28;102920.13;5025710;28;20042;-67
2021/12/15 01:49:37;;;;;;;63.58;31.38;;;;;;;8.91;85.40;102922.78;5043488;28;20033;-66
2021/12/15 01:52:15;;;;;;;56.17;31.42;;;;;;;8.88;85.07;102918.38;5044584;28;20041;-66
2021/12/15 01:54:43;;;;;;;52.45;30.30;;;;;;;8.90;85.27;102924.53;5028280;28;20112;-66
2021/12/15 01:57:11;;;;;;;57.97;31.58;;;;;;;8.89;85.54;102929.78;5024869;28;20160;-65
2021/12/15 01:59:36;;;;;;;59.95;32.40;;;;;;;8.90;85.42;102926.25;5026704;28;20021;-67
2021/12/15 02:02:03;;;;;;;51.40;30.35;;;;;;;8.85;85.29;102929.75;5103756;23;20107;-67
2021/12/15 02:04:29;;;;;;;51.55;27.85;;;;;;;8.88;85.62;102930.66;5024096;28;20430;-67
2021/12/15 02:06:54;;;;;;;51.63;27.88;;;;;;;8.85;85.28;102929.75;5026341;28;20080;-67
2021/12/15 02:12:08;;;;;;;58.10;29.05;;;;;;;8.87;85.48;102942.00;5025304;28;20076;-66
2021/12/15 02:14:34;;;;;;;54.30;29.13;;;;;;;8.86;85.42;102935.91;5024138;28;20445;-67
2021/12/15 02:17:00;;;;;;;55.88;31.75;;;;;;;8.80;85.79;102935.84;5025821;28;20026;-66
2021/12/15 02:19:25;;;;;;;61.22;33.45;;;;;;;8.78;85.92;102930.56;5024052;28;20533;-66
2021/12/15 02:21:51;;;;;;;57.45;33.05;;;;;;;8.75;86.08;102943.69;5024963;28;20083;-65
2021/12/15 02:24:16;;;;;;;54.30;31.52;;;;;;;8.82;85.70;102934.13;5024832;28;20025;-67
2021/12/15 02:26:48;;;;;;;54.30;29.60;;;;;;;8.89;85.25;102937.66;5023497;28;20105;-66
2021/12/15 02:29:17;;;;;;;57.58;32.08;;;;;;;8.81;85.83;102943.75;5025665;28;20391;-67
2021/12/15 02:34:43;;;;;;;51.92;29.80;;;;;;;8.83;85.41;102942.03;5025721;28;20099;-65
2021/12/15 02:39:40;;;;;;;49.28;28.30;;;;;;;8.87;85.32;102935.00;5026552;28;20320;-66
2021/12/15 02:42:06;;;;;;;57.08;30.48;;;;;;;8.85;85.23;102942.88;5021678;28;20021;-67
2021/12/15 02:44:32;;;;;;;52.08;27.63;;;;;;;8.83;85.63;102936.75;5025446;28;20079;-67
2021/12/15 02:46:57;;;;;;;47.70;26.58;;;;;;;8.85;85.55;102935.00;5024251;28;20025;-67
2021/12/15 02:49:27;;;;;;;55.60;29.27;;;;;;;8.88;85.42;102938.53;5025737;28;20031;-67
2021/12/15 02:51:54;;;;;;;56.05;30.90;;;;;;;8.84;85.34;102938.50;5023721;28;20120;-66
2021/12/15 02:54:20;;;;;;;50.10;27.58;;;;;;;8.89;85.45;102942.91;5025257;28;20419;-67
2021/12/15 02:56:46;;;;;;;46.05;25.90;;;;;;;8.94;85.31;102938.59;5023078;28;20144;-66
2021/12/15 02:59:14;;;;;;;50.50;28.75;;;;;;;8.99;84.73;102934.22;5025218;28;20021;-68
2021/12/15 03:04:29;;;;;;;53.95;29.73;;;;;;;8.92;84.99;102941.19;5024706;28;20040;-67
2021/12/15 03:07:04;;;;;;;51.22;26.40;;;;;;;8.96;85.22;102935.09;5022507;28;20017;-67
2021/12/15 03:17:31;;;;;;;47.47;28.15;;;;;;;8.94;84.96;102944.69;5023959;28;20613;-67
2021/12/15 03:19:56;;;;;;;55.90;27.98;;;;;;;9.02;84.76;102949.13;5023599;28;20045;-67
2021/12/15 03:22:22;;;;;;;47.75;24.80;;;;;;;9.02;84.91;102952.66;5022550;28;20036;-65
2021/12/15 03:24:47;;;;;;;52.28;27.63;;;;;;;8.97;85.08;102944.72;5025297;28;20025;-65
2021/12/15 03:27:18;;;;;;;51.30;24.58;;;;;;;9.02;84.98;102950.03;5024032;28;20476;-65
2021/12/15 03:35:35;;;;;;;47.13;25.60;;;;;;;9.03;85.04;102938.63;5025350;28;20048;-66
2021/12/15 03:38:00;;;;;;;48.85;27.42;;;;;;;9.06;84.75;102943.03;5023230;28;20448;-67
2021/12/15 03:40:37;;;;;;;46.00;25.63;;;;;;;9.07;85.04;102942.16;5023943;28;20091;-67
2021/12/15 03:43:06;;;;;;;53.65;27.48;;;;;;;9.03;85.07;102948.28;5021417;28;20120;-66
2021/12/15 03:45:40;;;;;;;54.15;28.52;;;;;;;9.06;84.82;102943.91;5023902;28;20025;-67
2021/12/15 03:48:11;;;;;;;47.55;25.85;;;;;;;9.10;84.65;102948.31;5023091;28;20386;-67
2021/12/15 03:50:37;;;;;;;55.95;29.00;;;;;;;9.07;84.72;102950.06;5023899;28;20626;-67
2021/12/15 03:53:03;;;;;;;48.42;27.10;;;;;;;9.08;84.99;102952.69;5023071;28;20216;-64
2021/12/15 03:55:32;;;;;;;48.85;27.00;;;;;;;9.05;85.29;102957.03;5025350;28;20955;-67
2021/12/15 03:57:59;;;;;;;45.95;22.77;;;;;;;9.02;85.40;102952.66;5023245;28;20384;-66
2021/12/15 04:00:25;;;;;;;47.90;25.25;;;;;;;9.03;85.23;102951.78;5023811;28;20068;-67
2021/12/15 04:02:51;;;;;;;50.50;24.35;;;;;;;9.04;85.47;102961.44;5023522;28;20053;-67
2021/12/15 04:05:19;;;;;;;45.83;25.88;;;;;;;9.04;85.29;102961.44;5024143;28;20029;-67
2021/12/15 04:07:45;;;;;;;44.83;25.58;;;;;;;9.09;85.24;102970.22;5024054;28;20017;-68
2021/12/15 04:10:12;;;;;;;46.80;25.20;;;;;;;9.14;85.10;102969.38;5024112;28;20057;-67
2021/12/15 04:12:38;;;;;;;53.03;25.42;;;;;;;9.15;84.95;102965.88;5023207;28;20022;-69
2021/12/15 04:18:04;;;;;;;46.97;24.20;;;;;;;9.10;85.35;102961.44;5015376;28;20387;-67
2021/12/15 04:20:32;;;;;;;50.33;24.30;;;;;;;9.19;84.83;102965.03;5027445;28;20124;-68
2021/12/15 04:22:57;;;;;;;51.65;22.90;;;;;;;9.21;84.62;102972.06;5027940;28;20057;-69
2021/12/15 04:25:25;;;;;;;50.40;24.60;;;;;;;9.22;85.04;102970.31;5025142;28;20495;-66
2021/12/15 04:27:55;;;;;;;48.95;24.40;;;;;;;9.23;84.84;102969.44;5027032;28;20049;-68
2021/12/15 04:30:21;;;;;;;53.83;25.67;;;;;;;9.25;84.83;102965.06;5027015;28;20376;-68
2021/12/15 04:32:48;;;;;;;49.42;24.15;;;;;;;9.24;84.72;102976.44;5027858;28;20039;-66
2021/12/15 04:35:15;;;;;;;47.83;25.75;;;;;;;9.21;84.67;102968.53;5027137;28;20030;-65
2021/12/15 04:37:42;;;;;;;46.45;24.35;;;;;;;9.20;85.08;102970.31;5028474;28;20424;-66
2021/12/15 04:40:10;;;;;;;46.13;25.40;;;;;;;9.25;84.96;102979.97;5026081;28;20538;-67
2021/12/15 04:42:37;;;;;;;52.95;24.90;;;;;;;9.25;84.67;102964.19;5027811;28;20029;-67
2021/12/15 04:45:03;;;;;;;59.30;26.50;;;;;;;9.26;84.59;102974.72;5025809;28;20117;-67
2021/12/15 04:47:29;;;;;;;47.95;25.17;;;;;;;9.26;84.71;102977.34;5024928;28;20112;-67
2021/12/15 04:49:55;;;;;;;50.42;23.58;;;;;;;9.23;84.85;102977.31;5026903;28;20083;-65
2021/12/15 04:52:23;;;;;;;52.45;25.88;;;;;;;9.22;84.73;102979.06;5024864;28;20038;-66
2021/12/15 04:54:50;;;;;;;56.13;25.67;;;;;;;9.20;84.85;102967.66;5027930;28;20486;-67
2021/12/15 04:57:17;;;;;;;51.58;23.80;;;;;;;9.23;85.19;102977.31;5027124;28;20116;-66
2021/12/15 04:59:43;;;;;;;53.75;23.98;;;;;;;9.21;84.81;102969.41;5028070;28;20360;-67
2021/12/15 05:02:10;;;;;;;58.53;26.35;;;;;;;9.22;84.92;102973.81;5027159;28;20053;-67
2021/12/15 05:04:38;;;;;;;53.83;26.60;;;;;;;9.22;84.74;102975.56;5027148;28;20030;-68
2021/12/15 05:07:05;;;;;;;53.60;25.02;;;;;;;9.18;84.73;102979.91;5022915;28;20064;-66
2021/12/15 05:09:30;;;;;;;58.20;26.10;;;;;;;9.10;85.30;102979.88;5027731;28;20017;-67
2021/12/15 05:11:55;;;;;;;55.38;26.33;;;;;;;9.20;84.94;102977.31;5025728;28;20494;-66
2021/12/15 05:14:23;;;;;;;52.55;26.13;;;;;;;9.19;85.24;102978.19;5027001;28;20033;-66
2021/12/15 05:16:50;;;;;;;57.05;28.17;;;;;;;9.14;85.35;102982.53;5026821;28;20033;-69
2021/12/15 05:19:15;;;;;;;62.78;28.77;;;;;;;9.10;85.46;102969.34;5024589;28;20025;-68
2021/12/15 05:21:41;;;;;;;52.78;23.40;;;;;;;9.16;85.13;102975.53;5027724;28;20034;-68
2021/12/15 05:26:50;;;;;;;60.05;26.60;;;;;;;9.16;85.16;102980.78;5026026;28;20407;-67
2021/12/15 05:29:16;;;;;;;52.55;24.38;;;;;;;9.14;85.54;102979.88;5027394;28;20021;-66
2021/12/15 05:31:41;;;;;;;46.83;23.70;;;;;;;9.18;85.55;102984.31;5027355;28;20487;-66
2021/12/15 05:34:07;;;;;;;49.60;25.70;;;;;;;9.19;85.03;102986.97;5026484;28;20087;-65
2021/12/15 05:36:32;;;;;;;51.53;25.02;;;;;;;9.18;85.07;102984.31;5027569;28;20021;-67
2021/12/15 05:38:57;;;;;;;60.28;25.20;;;;;;;9.15;85.58;102986.94;5027127;28;20017;-67
2021/12/15 05:41:23;;;;;;;57.35;26.05;;;;;;;9.21;85.40;102981.69;5026212;28;20496;-67
2021/12/15 05:43:48;;;;;;;51.03;25.95;;;;;;;9.18;85.42;102985.19;5022226;28;20018;-68
2021/12/15 05:46:14;;;;;;;54.92;24.75;;;;;;;9.16;85.30;102986.06;5025481;28;20112;-68
2021/12/15 05:48:39;;;;;;;46.20;23.15;;;;;;;9.14;85.48;102985.16;5026887;28;20112;-66
2021/12/15 05:51:04;;;;;;;47.15;21.85;;;;;;;9.08;85.90;102984.25;5026580;28;20053;-66
2021/12/15 05:53:30;;;;;;;56.08;25.25;;;;;;;9.14;85.72;102983.41;5025306;28;20021;-68
2021/12/15 05:55:55;;;;;;;50.72;25.40;;;;;;;9.19;85.42;102986.06;5025928;28;20037;-63
2021/12/15 05:58:21;;;;;;;55.33;22.73;;;;;;;9.24;84.93;102979.06;5020201;28;20091;-67
2021/12/15 06:00:47;;;;;;;57.65;26.48;;;;;;;9.16;85.53;102986.06;5026620;28;20744;-67
2021/12/15 06:03:13;;;;;;;50.67;22.95;;;;;;;9.18;85.59;102987.81;5025605;28;20038;-67
2021/12/15 06:05:39;;;;;;;58.85;25.30;;;;;;;9.20;85.08;102993.09;5026534;28;20035;-68
2021/12/15 06:08:05;;;;;;;57.58;24.05;;;;;;;9.21;85.49;102989.56;5024367;28;20367;-68
2021/12/15 06:10:30;;;;;;;58.75;25.58;;;;;;;9.21;85.10;102994.84;5025983;28;20025;-68
2021/12/15 06:12:57;;;;;;;60.05;25.80;;;;;;;9.18;85.49;102989.59;5021550;28;20033;-67
2021/12/15 06:15:24;;;;;;;56.13;24.08;;;;;;;9.23;85.27;103001.00;5026451;28;20025;-66
2021/12/15 06:17:52;;;;;;;54.22;24.92;;;;;;;9.24;85.40;102989.59;5026144;28;20029;-67
2021/12/15 06:20:18;;;;;;;56.35;26.25;;;;;;;9.22;85.45;102992.22;5025413;28;20117;-66
2021/12/15 06:22:45;;;;;;;63.80;29.15;;;;;;;9.19;85.05;102999.22;5024277;28;20078;-67
2021/12/15 06:25:11;;;;;;;69.72;27.90;;;;;;;9.22;85.30;102999.25;5026561;28;20038;-70
2021/12/15 06:27:37;;;;;;;67.38;27.50;;;;;;;9.23;85.18;103001.91;5019041;28;20033;-69
2021/12/15 06:30:04;;;;;;;76.72;30.73;;;;;;;9.17;85.25;102998.31;5022544;28;20024;-69
2021/12/15 06:32:31;;;;;;;66.63;29.23;;;;;;;9.14;85.42;103004.44;5025363;28;20521;-70
2021/12/15 06:34:56;;;;;;;75.90;29.23;;;;;;;9.16;85.78;103007.09;5025125;28;20079;-71
2021/12/15 06:37:21;;;;;;;69.82;26.33;;;;;;;9.13;86.04;103007.97;5004045;28;20400;-70
2021/12/15 06:39:47;;;;;;;64.70;27.25;;;;;;;9.20;85.63;103008.88;5025928;28;20024;-68
2021/12/15 06:42:12;;;;;;;64.32;27.42;;;;;;;9.21;85.68;103010.63;5025185;28;20117;-69
2021/12/15 06:44:40;;;;;;;65.88;27.63;;;;;;;9.24;85.10;103015.91;5025812;28;20109;-69
2021/12/15 07:00:27;;;;;;;67.93;30.33;;;;;;;9.23;85.51;103024.69;5019345;28;20399;-68
2021/12/15 07:02:53;;;;;;;71.60;31.52;;;;;;;9.19;85.65;103022.91;5022618;28;20496;-66
2021/12/15 07:05:19;;;;;;;72.72;30.70;;;;;;;9.22;85.48;103038.72;5025041;28;20025;-66
2021/12/15 07:07:47;;;;;;;69.32;30.17;;;;;;;9.18;85.45;103037.78;5025078;28;20025;-67
2021/12/15 07:10:15;;;;;;;63.38;29.63;;;;;;;9.19;85.67;103043.94;5024465;28;20071;-67
2021/12/15 07:12:40;;;;;;;69.80;31.08;;;;;;;9.26;85.45;103045.75;5024101;28;20061;-67
2021/12/15 07:15:08;;;;;;;63.78;29.42;;;;;;;9.24;85.16;103047.47;5025317;28;20472;-67
2021/12/15 07:17:35;;;;;;;59.95;29.98;;;;;;;9.22;85.19;103039.56;5024974;28;20115;-69
2021/12/15 07:22:31;;;;;;;66.13;30.05;;;;;;;9.27;85.08;103049.28;5024191;28;20038;-68
2021/12/15 07:24:58;;;;;;;63.80;30.00;;;;;;;9.25;85.09;103049.25;5021914;28;20036;-70
2021/12/15 07:27:23;;;;;;;65.70;29.65;;;;;;;9.23;85.58;103043.09;5024969;28;20499;-71
2021/12/15 07:29:49;;;;;;;60.15;27.77;;;;;;;9.21;85.70;103043.06;5022734;28;20118;-70
2021/12/15 07:32:15;;;;;;;68.28;29.30;;;;;;;9.22;85.57;103049.22;5025343;28;20085;-70
2021/12/15 07:34:40;;;;;;;68.60;31.25;;;;;;;9.19;85.34;103043.94;5024817;28;20037;-69
2021/12/15 07:37:05;;;;;;;64.55;28.73;;;;;;;9.25;85.73;103041.38;5022945;28;20026;-70
2021/12/15 07:39:31;;;;;;;58.47;27.45;;;;;;;9.28;85.52;103046.66;5023700;28;20030;-68
2021/12/15 07:42:06;;;;;;;65.82;28.98;;;;;;;9.28;85.38;103048.38;5021626;28;20044;-70
2021/12/15 07:44:32;;;;;;;57.55;25.48;;;;;;;9.30;85.62;103052.78;5022743;28;20057;-68
2021/12/15 07:46:57;;;;;;;66.10;27.73;;;;;;;9.32;85.45;103056.31;5022389;28;20053;-69
2021/12/15 07:49:25;;;;;;;55.70;24.52;;;;;;;9.33;85.04;103044.91;5026902;28;20060;-69
2021/12/15 07:51:59;;;;;;;57.10;26.52;;;;;;;9.27;85.41;103052.75;5027271;28;20037;-69
2021/12/15 07:54:25;;;;;;;48.72;23.58;;;;;;;9.31;85.35;103051.94;5028668;28;20434;-70
2021/12/15 07:56:50;;;;;;;49.83;22.83;;;;;;;9.35;85.27;103050.19;5026686;28;20022;-68
2021/12/15 07:59:16;;;;;;;55.47;24.42;;;;;;;9.38;85.37;103052.84;5029000;28;20498;-67
2021/12/15 08:01:42;;;;;;;53.55;25.80;;;;;;;9.38;85.37;103049.31;5025808;28;20053;-68
2021/12/15 08:04:07;;;;;;;52.08;23.17;;;;;;;9.46;85.16;103060.78;5028617;28;20018;-68
2021/12/15 08:06:33;;;;;;;46.67;23.30;;;;;;;9.38;85.00;103057.22;5026986;28;20425;-69
2021/12/15 08:08:58;;;;;;;47.70;23.17;;;;;;;9.41;85.23;103052.88;5029204;28;20460;-70
2021/12/15 08:11:23;;;;;;;51.55;24.58;;;;;;;9.44;85.10;103060.78;5025270;28;20233;-71
2021/12/15 08:13:49;;;;;;;49.60;22.90;;;;;;;9.46;84.73;103055.53;5027643;28;20040;-69
2021/12/15 08:16:14;;;;;;;45.88;23.77;;;;;;;9.48;84.74;103061.66;5028068;28;20022;-68
2021/12/15 08:18:42;;;;;;;49.80;23.02;;;;;;;9.51;85.02;103060.84;5027820;28;20029;-69
2021/12/15 08:21:09;;;;;;;48.83;22.07;;;;;;;9.52;84.66;103055.56;5026347;28;20404;-70
2021/12/15 08:23:34;;;;;;;42.90;19.80;;;;;;;9.52;84.88;103052.94;5026784;28;20033;-69
2021/12/15 08:26:00;;;;;;;49.20;22.75;;;;;;;9.53;84.59;103065.22;5026566;28;20063;-69
2021/12/15 08:28:25;;;;;;;46.67;21.25;;;;;;;9.60;84.19;103061.75;5026883;28;20087;-68
2021/12/15 08:30:51;;;;;;;43.75;20.95;;;;;;;9.58;84.65;103070.53;5025353;28;20302;-68
2021/12/15 08:33:19;;;;;;;45.35;19.77;;;;;;;9.57;84.57;103067.00;5021708;28;20082;-68
2021/12/15 08:35:58;;;;;;;50.63;22.70;;;;;;;9.60;84.39;103076.66;5026659;28;20641;-68
2021/12/15 08:38:25;;;;;;;47.25;21.45;;;;;;;9.58;84.40;103067.88;5026993;28;20039;-69
2021/12/15 08:40:53;;;;;;;53.42;21.25;;;;;;;9.57;84.71;103072.25;5027362;28;20099;-70
2021/12/15 08:43:19;;;;;;;43.40;21.40;;;;;;;9.60;84.29;103072.28;5020532;28;20021;-69
2021/12/15 08:45:50;;;;;;;39.60;19.48;;;;;;;9.65;84.41;103074.94;5015961;28;20060;-70
2021/12/15 08:48:16;;;;;;;39.25;19.10;;;;;;;9.72;83.64;103075.84;5021784;28;20064;-71
2021/12/15 08:50:42;;;;;;;35.30;19.80;;;;;;;9.71;83.97;103076.72;5015125;28;20025;-64
2021/12/15 08:53:10;;;;;;;41.63;20.85;;;;;;;9.72;83.68;103078.47;5017170;28;20443;-69
2021/12/15 08:55:41;;;;;;;38.97;20.87;;;;;;;9.71;83.66;103071.47;5015240;28;20053;-70
2021/12/15 08:58:09;;;;;;;42.90;19.55;;;;;;;9.77;83.66;103084.66;5018359;28;20042;-72
2021/12/15 09:00:35;;;;;;;39.55;19.45;;;;;;;9.83;83.07;103089.97;5018822;28;20057;-68
2021/12/15 09:03:00;;;;;;;32.25;18.08;;;;;;;9.81;83.29;103086.44;5019828;28;20212;-71
2021/12/15 09:05:26;;;;;;;34.90;17.80;;;;;;;9.80;83.52;103089.06;5017371;28;20021;-73
2021/12/15 09:07:54;;;;;;;31.83;17.27;;;;;;;9.77;83.65;103089.94;5019998;28;20049;-70
2021/12/15 09:10:22;;;;;;;36.65;19.17;;;;;;;9.80;83.35;103100.50;5017116;28;20076;-70
2021/12/15 09:12:48;;;;;;;36.97;16.75;;;;;;;9.80;83.20;103099.59;5015398;28;20228;-69
2021/12/15 09:15:14;;;;;;;35.90;17.40;;;;;;;9.75;83.09;103102.19;5017617;28;20061;-68
2021/12/15 09:17:40;;;;;;;36.70;17.73;;;;;;;9.80;82.59;103100.50;5014396;28;20026;-66
2021/12/15 09:20:08;;;;;;;40.33;17.15;;;;;;;9.83;82.67;103095.25;5012274;28;20803;-67
2021/12/15 09:22:34;;;;;;;32.80;15.65;;;;;;;9.77;82.64;103104.84;5026082;28;20074;-67
2021/12/15 09:25:00;;;;;;;35.08;15.25;;;;;;;9.82;81.86;103103.13;5023581;28;20431;-67
2021/12/15 09:27:25;;;;;;;32.20;14.73;;;;;;;9.80;81.75;103108.38;5014759;28;20076;-71
2021/12/15 09:29:51;;;;;;;30.52;14.10;;;;;;;9.81;81.75;103112.78;5012867;28;20115;-74
2021/12/15 09:32:16;;;;;;;27.65;14.60;;;;;;;9.86;81.67;103120.69;5025074;28;20038;-75
2021/12/15 09:34:41;;;;;;;27.77;14.52;;;;;;;9.84;81.11;103119.81;5020151;28;20036;-74
2021/12/15 09:37:07;;;;;;;24.60;13.40;;;;;;;9.88;81.17;103115.44;5018092;28;20083;-75
2021/12/15 09:39:32;;;;;;;25.80;14.20;;;;;;;9.90;80.83;103125.09;5015488;28;20416;-75
2021/12/15 09:41:59;;;;;;;26.48;13.43;;;;;;;9.91;80.93;103128.63;5013540;28;20022;-67
2021/12/15 09:44:27;;;;;;;24.80;12.68;;;;;;;9.94;80.23;103128.66;5021069;28;20049;-68
2021/12/15 10:03:49;;;;;;;28.98;13.65;;;;;;;9.83;80.68;103158.44;5020322;28;20458;-63
2021/12/15 10:06:22;;;;;;;25.70;13.68;;;;;;;9.80;81.09;103149.63;5017555;28;20037;-72
2021/12/15 10:19:34;;;;;;;27.88;13.50;;;;;;;9.89;81.38;103154.06;5019465;28;20059;-75
2021/12/15 10:22:26;;;;;;;23.88;13.43;;;;;;;9.89;81.42;103154.06;5026469;28;20018;-81
2021/12/15 10:24:56;;;;;;;32.70;15.27;;;;;;;9.91;81.20;103155.88;5021392;28;20079;-82
2021/12/15 10:27:39;;;;;;;31.92;15.10;;;;;;;9.89;81.42;103164.59;5018271;28;20029;-71
2021/12/15 10:30:09;;;;;;;32.13;14.27;;;;;;;9.91;81.14;103149.69;5011968;28;20029;-72
2021/12/15 10:32:37;;;;;;;26.30;13.23;;;;;;;9.91;81.29;103154.97;5012835;28;20057;-70
2021/12/15 10:35:17;;;;;;;29.25;15.52;;;;;;;9.85;81.58;103161.09;5003885;28;20022;-69
2021/12/15 10:38:16;;;;;;;32.58;14.30;;;;;;;9.94;80.96;103165.53;5024653;28;20120;-76
2021/12/15 10:40:49;;;;;;;31.75;14.07;;;;;;;10.05;80.70;103153.28;5008678;28;20022;-64
2021/12/15 10:43:15;;;;;;;25.35;12.45;;;;;;;10.05;80.96;103145.38;5026301;28;20091;-62
2021/12/15 10:45:45;;;;;;;27.42;12.23;;;;;;;10.11;79.78;103142.78;5019212;28;20030;-71
2021/12/15 10:48:23;;;;;;;31.45;13.32;;;;;;;10.12;80.34;103154.22;5028898;28;20026;-77
2021/12/15 10:50:48;;;;;;;26.45;12.50;;;;;;;10.08;80.63;103155.94;5018989;28;20202;-68
2021/12/15 10:53:14;;;;;;;26.35;13.15;;;;;;;10.16;80.14;103161.25;5024434;28;20476;-67
2021/12/15 10:55:40;;;;;;;27.60;13.43;;;;;;;10.19;80.08;103160.38;5016040;28;20105;-73
2021/12/15 10:58:32;;;;;;;19.75;10.10;;;;;;;10.26;79.50;103159.53;5025301;28;20029;-69
2021/12/15 11:00:57;;;;;;;24.30;11.40;;;;;;;10.34;78.78;103165.75;5014042;28;20017;-70
2021/12/15 11:03:31;;;;;;;30.65;11.45;;;;;;;10.33;78.52;103156.06;5021689;28;20046;-68
2021/12/15 11:05:56;;;;;;;25.02;11.30;;;;;;;10.34;78.23;103155.19;5006200;28;20492;-69
2021/12/15 11:08:22;;;;;;;25.55;10.82;;;;;;;10.43;78.11;103153.47;5021883;28;20044;-69
2021/12/15 11:10:47;;;;;;;22.85;9.63;;;;;;;10.48;77.95;103157.91;5015801;28;20172;-69
2021/12/15 11:13:14;;;;;;;20.42;9.90;;;;;;;10.55;77.83;103163.22;5018286;28;20030;-71
2021/12/15 11:15:49;;;;;;;21.33;10.18;;;;;;;10.50;77.89;103160.56;5005360;28;20101;-69
2021/12/15 11:18:20;;;;;;;19.23;8.10;;;;;;;10.57;77.59;103156.19;5015116;28;20507;-66
2021/12/15 11:20:54;;;;;;;20.48;8.95;;;;;;;10.57;76.80;103151.78;5004612;28;20048;-68
2021/12/15 11:23:21;;;;;;;17.15;7.45;;;;;;;10.60;76.53;103158.84;5021976;28;20130;-70
2021/12/15 11:25:52;;;;;;;17.73;8.15;;;;;;;10.57;76.96;103153.56;5024025;28;20079;-68
2021/12/15 11:28:28;;;;;;;19.83;7.60;;;;;;;10.56;76.60;103155.31;5022891;28;20447;-69
2021/12/15 11:30:59;;;;;;;16.40;6.63;;;;;;;10.63;75.94;103160.59;5013395;28;20030;-68
2021/12/15 11:33:48;;;;;;;12.20;5.97;;;;;;;10.58;75.53;103150.03;5016815;28;20049;-69
2021/12/15 11:36:23;;;;;;;;;;;;;;;10.60;75.82;103146.53;5021617;28;20488;-68
2021/12/15 11:38:52;;;;;;;19.75;6.30;;;;;;;10.56;75.90;103151.78;5021952;28;19917;-68
2021/12/15 11:41:22;;;;;;;14.73;5.85;;;;;;;10.60;74.82;103151.78;5023236;28;20041;-68
2021/12/15 11:43:51;;;;;;;14.90;6.15;;;;;;;10.58;75.36;103153.56;5019648;28;20030;-68
2021/12/15 11:46:37;;;;;;;14.80;5.28;;;;;;;10.54;74.51;103156.19;5022540;28;20021;-68
2021/12/15 11:49:14;;;;;;;20.10;6.50;;;;;;;10.54;75.02;103156.19;5021344;28;20045;-68
2021/12/15 11:51:52;;;;;;;17.40;5.28;;;;;;;10.62;73.75;103151.81;5015266;28;20022;-69
2021/12/15 11:54:25;;;;;;;15.43;4.82;;;;;;;10.60;73.73;103161.47;5013751;28;20498;-67
2021/12/15 11:57:26;;;;;;;10.95;4.53;;;;;;;10.63;73.74;103160.59;5014955;28;20456;-69
2021/12/15 11:59:56;;;;;;;17.70;4.70;;;;;;;10.61;74.46;103156.22;5019843;28;20128;-69
2021/12/15 12:02:24;;;;;;;16.48;5.20;;;;;;;10.63;74.78;103155.34;5023952;28;20119;-68
2021/12/15 12:04:52;;;;;;;15.25;5.20;;;;;;;10.63;74.62;103148.31;5017813;28;20428;-67
2021/12/15 12:07:22;;;;;;;17.95;6.05;;;;;;;10.57;75.06;103145.66;5014247;28;20353;-68
2021/12/15 12:10:06;;;;;;;14.15;5.32;;;;;;;10.60;74.69;103151.78;5013521;28;20446;-68
2021/12/15 12:12:38;;;;;;;13.90;5.15;;;;;;;10.59;74.72;103157.97;5021733;28;20037;-68
2021/12/15 12:15:07;;;;;;;13.30;5.38;;;;;;;10.55;75.01;103156.19;5019420;28;20025;-68
2021/12/15 12:17:35;;;;;;;;;;;;;;;10.54;74.52;103151.78;5024946;28;20044;-69
2021/12/15 12:20:10;;;;;;;11.57;5.78;;;;;;;10.54;74.93;103151.78;5016301;28;19917;-68
2021/12/15 12:22:36;;;;;;;8.80;4.85;;;;;;;10.53;75.06;103144.75;5010324;28;20112;-68
2021/12/15 12:25:26;;;;;;;18.42;5.70;;;;;;;10.45;75.25;103130.66;5022766;28;20025;-68
2021/12/15 12:27:53;;;;;;;10.38;5.13;;;;;;;10.48;75.38;103131.53;5023820;28;20018;-69
2021/12/15 12:30:30;;;;;;;15.75;5.45;;;;;;;10.49;74.81;103133.34;5020409;28;20466;-70
2021/12/15 12:32:56;;;;;;;16.92;5.80;;;;;;;10.44;74.93;103134.13;5019228;28;20034;-69
2021/12/15 12:35:29;;;;;;;12.23;5.88;;;;;;;10.49;75.14;103129.81;5023526;28;20053;-70
2021/12/15 12:37:57;;;;;;;11.43;5.53;;;;;;;10.47;74.68;103128.91;5026429;28;20306;-69
2021/12/15 12:40:24;;;;;;;12.97;5.03;;;;;;;10.41;75.43;103129.72;5027621;28;20337;-68
2021/12/15 12:42:50;;;;;;;17.10;5.57;;;;;;;10.44;75.47;103135.03;5033371;28;20868;-68
2021/12/15 12:45:37;;;;;;;9.48;4.90;;;;;;;10.35;75.77;103135.88;5048052;28;20112;-67